Time;durP1;ratioP1;P1;durP2;ratioP2;P2;SDS_P1;SDS_P2;PMS_P1;PMS_P2;Temp;Humidity;BMP_temperature;BMP_pressure;BME280_temperature;BME280_humidity;BME280_pressure;Samples;Min_cycle;Max_cycle;Signal;HPM_P1;HPM_P2
2021/08/10 00:00:55;;;;;;;17.58;5.30;;;;;;;;;;5111076;28;20398;-69
2021/08/10 00:03:21;;;;;;;15.23;4.45;;;;;;;;;;5112487;28;20023;-69
2021/08/10 00:05:48;;;;;;;15.40;4.47;;;;;;;;;;5111082;28;20510;-70
2021/08/10 00:08:17;;;;;;;13.07;4.07;;;;;;;;;;5111978;28;20052;-68
2021/08/10 00:10:44;;;;;;;17.05;4.95;;;;;;;;;;5112559;28;20036;-69
2021/08/10 00:13:11;;;;;;;15.40;4.60;;;;;;;;;;5107083;28;20019;-69
2021/08/10 00:15:37;;;;;;;17.77;4.22;;;;;;;;;;5111904;28;20015;-69
2021/08/10 00:18:03;;;;;;;18.75;4.47;;;;;;;;;;5112574;28;20069;-69
2021/08/10 00:20:29;;;;;;;17.88;4.82;;;;;;;;;;5112188;27;20035;-69
2021/08/10 00:22:55;;;;;;;16.35;4.20;;;;;;;;;;5112075;27;20050;-70
2021/08/10 00:25:22;;;;;;;18.73;4.65;;;;;;;;;;5111391;28;20019;-69
2021/08/10 00:27:48;;;;;;;14.15;3.88;;;;;;;;;;5111186;28;20069;-69
2021/08/10 00:30:14;;;;;;;19.30;5.22;;;;;;;;;;5110904;28;20034;-68
2021/08/10 00:32:40;;;;;;;16.38;4.53;;;;;;;;;;5112574;28;20038;-68
2021/08/10 00:35:06;;;;;;;15.48;4.70;;;;;;;;;;5111390;28;20035;-68
2021/08/10 00:37:32;;;;;;;25.92;5.55;;;;;;;;;;5111720;28;20028;-69
2021/08/10 00:39:59;;;;;;;16.42;4.80;;;;;;;;;;5109989;28;20027;-68
2021/08/10 00:42:25;;;;;;;16.00;4.47;;;;;;;;;;5112813;28;20027;-68
2021/08/10 00:44:51;;;;;;;20.27;4.45;;;;;;;;;;5112084;28;20023;-69
2021/08/10 00:47:17;;;;;;;13.15;3.95;;;;;;;;;;5109978;28;20035;-69
2021/08/10 00:49:43;;;;;;;12.65;4.93;;;;;;;;;;5112082;28;20023;-69
2021/08/10 00:52:09;;;;;;;13.98;4.63;;;;;;;;;;5109857;28;20419;-69
2021/08/10 00:54:35;;;;;;;15.48;4.70;;;;;;;;;;5110243;28;20446;-69
2021/08/10 00:57:01;;;;;;;14.60;4.65;;;;;;;;;;5109417;28;20035;-69
2021/08/10 00:59:27;;;;;;;19.10;4.82;;;;;;;;;;5112105;28;20027;-69
2021/08/10 01:01:54;;;;;;;18.80;4.97;;;;;;;;;;5111175;27;20110;-69
2021/08/10 01:04:20;;;;;;;14.05;4.63;;;;;;;;;;5118493;27;20023;-68
2021/08/10 01:07:09;;;;;;;15.52;4.97;;;;;;;;;;5117415;27;20043;-68
2021/08/10 01:09:55;;;;;;;15.35;5.45;;;;;;;;;;5099751;28;20118;-69
2021/08/10 01:12:27;;;;;;;10.77;4.63;;;;;;;;;;5111146;28;20020;-69
2021/08/10 01:15:02;;;;;;;17.00;4.88;;;;;;;;;;5109190;28;20502;-68
2021/08/10 01:17:30;;;;;;;17.45;4.53;;;;;;;;;;5111211;28;20023;-69
2021/08/10 01:19:59;;;;;;;14.77;4.88;;;;;;;;;;5111412;28;20522;-69
2021/08/10 01:22:27;;;;;;;18.35;5.72;;;;;;;;;;5110293;27;20027;-69
2021/08/10 01:25:05;;;;;;;19.20;5.22;;;;;;;;;;5110779;28;20024;-69
2021/08/10 01:27:47;;;;;;;11.98;4.50;;;;;;;;;;5111634;28;20056;-69
2021/08/10 01:30:15;;;;;;;13.30;5.95;;;;;;;;;;5110707;28;20022;-69
2021/08/10 01:32:43;;;;;;;16.58;4.88;;;;;;;;;;5111281;28;20015;-69
2021/08/10 01:35:10;;;;;;;18.52;5.93;;;;;;;;;;5109841;28;20034;-69
2021/08/10 01:37:38;;;;;;;13.55;5.70;;;;;;;;;;5109356;28;20032;-69
2021/08/10 01:40:08;;;;;;;13.70;4.80;;;;;;;;;;5111056;27;20490;-69
2021/08/10 01:42:35;;;;;;;15.57;5.70;;;;;;;;;;5110890;28;20031;-69
2021/08/10 01:45:02;;;;;;;19.02;6.00;;;;;;;;;;5109415;28;20035;-69
2021/08/10 01:47:30;;;;;;;16.17;5.28;;;;;;;;;;5110735;28;20117;-69
2021/08/10 01:49:58;;;;;;;18.25;6.20;;;;;;;;;;5110229;28;20046;-69
2021/08/10 01:52:25;;;;;;;24.23;6.10;;;;;;;;;;5110491;28;20038;-68
2021/08/10 01:54:51;;;;;;;18.05;6.55;;;;;;;;;;5110140;27;20031;-69
2021/08/10 01:57:18;;;;;;;17.50;5.43;;;;;;;;;;5109260;28;20034;-69
2021/08/10 01:59:45;;;;;;;18.80;5.72;;;;;;;;;;5110600;28;20034;-68
2021/08/10 02:02:11;;;;;;;18.50;5.65;;;;;;;;;;5111168;28;20063;-69
2021/08/10 02:04:37;;;;;;;24.73;6.68;;;;;;;;;;5107806;28;20494;-69
2021/08/10 02:07:04;;;;;;;17.30;5.50;;;;;;;;;;5108176;28;20088;-69
2021/08/10 02:09:30;;;;;;;16.05;5.25;;;;;;;;;;5109021;28;20448;-69
2021/08/10 02:11:56;;;;;;;18.75;5.55;;;;;;;;;;5109966;27;20023;-69
2021/08/10 02:14:25;;;;;;;17.85;5.90;;;;;;;;;;5110518;28;20073;-68
2021/08/10 02:16:51;;;;;;;15.55;5.65;;;;;;;;;;5109264;28;20089;-68
2021/08/10 02:19:18;;;;;;;13.20;5.88;;;;;;;;;;5108647;28;20479;-69
2021/08/10 02:21:46;;;;;;;17.00;5.15;;;;;;;;;;5110383;27;20026;-69
2021/08/10 02:24:20;;;;;;;13.32;5.72;;;;;;;;;;5110715;27;20027;-69
2021/08/10 02:26:47;;;;;;;17.50;5.50;;;;;;;;;;5109147;28;20023;-69
2021/08/10 02:29:15;;;;;;;16.17;5.78;;;;;;;;;;5107904;28;20106;-69
2021/08/10 02:31:42;;;;;;;20.67;6.10;;;;;;;;;;5110022;28;20019;-69
2021/08/10 02:34:08;;;;;;;15.00;5.32;;;;;;;;;;5109907;28;20051;-69
2021/08/10 02:36:34;;;;;;;16.58;6.50;;;;;;;;;;5107085;28;20624;-69
2021/08/10 02:39:07;;;;;;;21.35;7.18;;;;;;;;;;5109457;28;20031;-69
2021/08/10 02:41:35;;;;;;;15.70;6.00;;;;;;;;;;5107009;28;20483;-69
2021/08/10 02:44:01;;;;;;;21.08;7.90;;;;;;;;;;5110314;28;20051;-68
2021/08/10 02:46:27;;;;;;;19.75;6.90;;;;;;;;;;5107395;28;20102;-69
2021/08/10 02:48:53;;;;;;;21.50;6.22;;;;;;;;;;5109299;28;20081;-69
2021/08/10 02:51:19;;;;;;;19.45;6.30;;;;;;;;;;5109637;28;20085;-69
2021/08/10 02:53:45;;;;;;;17.17;6.15;;;;;;;;;;5108926;28;20028;-69
2021/08/10 02:56:23;;;;;;;18.30;6.97;;;;;;;;;;5107855;28;20028;-69
2021/08/10 02:58:58;;;;;;;21.83;7.88;;;;;;;;;;5108572;28;20539;-68
2021/08/10 03:01:26;;;;;;;13.95;6.38;;;;;;;;;;5109485;28;20024;-69
2021/08/10 03:03:54;;;;;;;16.25;6.60;;;;;;;;;;5106968;28;20023;-68
2021/08/10 03:06:20;;;;;;;16.98;6.55;;;;;;;;;;5108238;28;20043;-70
2021/08/10 03:08:52;;;;;;;20.63;6.35;;;;;;;;;;5109718;28;20035;-69
2021/08/10 03:11:18;;;;;;;17.10;6.68;;;;;;;;;;5109287;28;20047;-69
2021/08/10 03:13:46;;;;;;;21.38;7.88;;;;;;;;;;5108535;28;20107;-69
2021/08/10 03:16:13;;;;;;;21.23;6.78;;;;;;;;;;5107957;28;20073;-70
2021/08/10 03:18:40;;;;;;;23.70;7.40;;;;;;;;;;5109594;28;20022;-70
2021/08/10 03:21:06;;;;;;;17.02;7.32;;;;;;;;;;5108823;28;20024;-69
2021/08/10 03:23:37;;;;;;;18.25;6.68;;;;;;;;;;5109699;28;20027;-69
2021/08/10 03:26:04;;;;;;;20.17;7.78;;;;;;;;;;5102677;28;20081;-70
2021/08/10 03:28:31;;;;;;;20.17;6.68;;;;;;;;;;5109618;28;20032;-70
2021/08/10 03:30:58;;;;;;;14.43;6.78;;;;;;;;;;5108218;28;20122;-70
2021/08/10 03:33:31;;;;;;;19.20;7.00;;;;;;;;;;5113276;28;20012;-69
2021/08/10 03:35:57;;;;;;;24.85;7.03;;;;;;;;;;5110204;28;20485;-70
2021/08/10 03:38:24;;;;;;;21.77;7.53;;;;;;;;;;5111255;28;20106;-70
2021/08/10 03:40:50;;;;;;;19.83;7.47;;;;;;;;;;5112930;28;20149;-70
2021/08/10 03:43:16;;;;;;;19.05;6.97;;;;;;;;;;5111936;28;20494;-70
2021/08/10 03:45:43;;;;;;;20.90;7.03;;;;;;;;;;5112327;28;20034;-69
2021/08/10 03:48:09;;;;;;;20.40;6.97;;;;;;;;;;5111985;28;20031;-70
2021/08/10 03:50:36;;;;;;;20.95;7.55;;;;;;;;;;5111618;28;20062;-69
2021/08/10 03:53:03;;;;;;;21.75;7.10;;;;;;;;;;5110287;28;20077;-69
2021/08/10 03:55:29;;;;;;;23.40;7.90;;;;;;;;;;5105222;28;20500;-69
2021/08/10 03:57:57;;;;;;;22.13;7.03;;;;;;;;;;5112040;28;20024;-69
2021/08/10 04:00:24;;;;;;;19.17;7.82;;;;;;;;;;5110895;28;20024;-69
2021/08/10 04:02:51;;;;;;;17.60;7.72;;;;;;;;;;5112275;28;20027;-69
2021/08/10 04:05:17;;;;;;;24.23;8.05;;;;;;;;;;5109494;28;20024;-68
2021/08/10 04:07:43;;;;;;;20.15;7.20;;;;;;;;;;5113281;27;20487;-69
2021/08/10 04:10:10;;;;;;;19.63;7.75;;;;;;;;;;5112326;28;20024;-69
2021/08/10 04:12:36;;;;;;;24.90;8.85;;;;;;;;;;5117813;27;20019;-70
2021/08/10 04:15:03;;;;;;;20.08;7.78;;;;;;;;;;5120248;27;20411;-70
2021/08/10 04:17:30;;;;;;;24.67;7.88;;;;;;;;;;5113212;27;20016;-68
2021/08/10 04:19:59;;;;;;;22.98;7.68;;;;;;;;;;5111431;27;20050;-69
2021/08/10 04:22:25;;;;;;;19.05;8.38;;;;;;;;;;5109467;28;20552;-70
2021/08/10 04:24:51;;;;;;;24.10;9.00;;;;;;;;;;5110665;28;20028;-70
2021/08/10 04:27:17;;;;;;;16.45;7.20;;;;;;;;;;5109602;28;20023;-70
2021/08/10 04:29:44;;;;;;;19.55;7.03;;;;;;;;;;5113127;28;20027;-70
2021/08/10 04:32:10;;;;;;;17.00;8.27;;;;;;;;;;5111507;28;20020;-69
2021/08/10 04:34:36;;;;;;;20.38;8.32;;;;;;;;;;5112256;28;20077;-70
2021/08/10 04:37:03;;;;;;;18.67;8.05;;;;;;;;;;5109316;28;20144;-70
2021/08/10 04:39:29;;;;;;;22.25;8.73;;;;;;;;;;5112383;28;20023;-70
2021/08/10 04:41:55;;;;;;;21.02;8.48;;;;;;;;;;5111468;28;20490;-70
2021/08/10 04:44:22;;;;;;;19.30;7.97;;;;;;;;;;5108779;28;20028;-70
2021/08/10 04:46:48;;;;;;;18.92;8.10;;;;;;;;;;5108977;28;20490;-70
2021/08/10 04:49:15;;;;;;;26.95;8.07;;;;;;;;;;5109149;28;20038;-69
2021/08/10 04:51:41;;;;;;;23.35;8.65;;;;;;;;;;5111989;27;20043;-71
2021/08/10 04:54:07;;;;;;;21.50;8.38;;;;;;;;;;5111732;28;20050;-69
2021/08/10 04:56:33;;;;;;;18.10;6.72;;;;;;;;;;5108138;28;20196;-69
2021/08/10 04:58:59;;;;;;;23.63;7.25;;;;;;;;;;5111688;28;20104;-69
2021/08/10 05:01:25;;;;;;;19.38;7.50;;;;;;;;;;5108654;28;20127;-69
2021/08/10 05:03:51;;;;;;;25.30;7.72;;;;;;;;;;5111140;28;20110;-68
2021/08/10 05:06:17;;;;;;;18.15;6.85;;;;;;;;;;5110752;28;20044;-70
2021/08/10 05:08:43;;;;;;;22.83;7.53;;;;;;;;;;5112419;27;20123;-69
2021/08/10 05:11:10;;;;;;;24.65;7.53;;;;;;;;;;5111432;28;20025;-69
2021/08/10 05:13:36;;;;;;;19.02;6.75;;;;;;;;;;5111221;28;20019;-69
2021/08/10 05:16:02;;;;;;;21.70;8.00;;;;;;;;;;5109937;28;20035;-68
2021/08/10 05:18:28;;;;;;;22.75;7.40;;;;;;;;;;5111282;28;20093;-69
2021/08/10 05:20:54;;;;;;;21.25;6.43;;;;;;;;;;5109900;28;20487;-69
2021/08/10 05:23:20;;;;;;;18.45;6.18;;;;;;;;;;5110203;28;20065;-70
2021/08/10 05:25:46;;;;;;;25.88;6.82;;;;;;;;;;5109979;28;20040;-69
2021/08/10 05:28:12;;;;;;;15.40;5.53;;;;;;;;;;5110453;28;20376;-69
2021/08/10 05:30:39;;;;;;;14.10;5.60;;;;;;;;;;5100365;28;20457;-70
2021/08/10 05:33:05;;;;;;;19.52;5.43;;;;;;;;;;5094456;28;20024;-69
2021/08/10 05:35:31;;;;;;;15.35;5.15;;;;;;;;;;5096030;28;20026;-69
2021/08/10 05:37:57;;;;;;;20.77;5.93;;;;;;;;;;5100653;28;20024;-69
2021/08/10 05:40:23;;;;;;;18.23;5.07;;;;;;;;;;5097253;28;20024;-68
2021/08/10 05:42:49;;;;;;;17.45;5.78;;;;;;;;;;5100032;28;20028;-69
2021/08/10 05:45:15;;;;;;;16.40;6.50;;;;;;;;;;5094168;28;20028;-70
2021/08/10 05:47:41;;;;;;;16.95;6.55;;;;;;;;;;5097381;28;20024;-70
2021/08/10 05:50:07;;;;;;;21.88;7.13;;;;;;;;;;5099704;28;20020;-69
2021/08/10 05:52:33;;;;;;;17.52;7.22;;;;;;;;;;5097235;28;20463;-68
2021/08/10 05:54:59;;;;;;;25.92;7.38;;;;;;;;;;5096512;28;21726;-70
2021/08/10 05:57:25;;;;;;;24.17;9.13;;;;;;;;;;5097159;28;20441;-69
2021/08/10 05:59:51;;;;;;;23.35;8.50;;;;;;;;;;5098281;28;20476;-69
2021/08/10 06:02:17;;;;;;;17.25;8.27;;;;;;;;;;5097540;28;20039;-69
2021/08/10 06:04:43;;;;;;;21.95;9.65;;;;;;;;;;5097541;28;20020;-68
2021/08/10 06:07:09;;;;;;;18.15;8.32;;;;;;;;;;5097432;28;20046;-69
2021/08/10 06:09:35;;;;;;;17.60;8.57;;;;;;;;;;5099563;28;20031;-70
2021/08/10 06:12:02;;;;;;;17.42;7.57;;;;;;;;;;5097738;28;20016;-69
2021/08/10 06:14:28;;;;;;;16.60;5.82;;;;;;;;;;5096277;28;20031;-69
2021/08/10 06:16:54;;;;;;;14.23;5.32;;;;;;;;;;5093710;28;20047;-69
2021/08/10 06:19:20;;;;;;;15.77;5.78;;;;;;;;;;5097295;28;20476;-69
2021/08/10 06:21:48;;;;;;;15.80;5.13;;;;;;;;;;5098355;28;20020;-69
2021/08/10 06:24:14;;;;;;;14.70;5.78;;;;;;;;;;5095072;28;20031;-69
2021/08/10 06:26:40;;;;;;;12.15;5.30;;;;;;;;;;5097356;28;20035;-69
2021/08/10 06:29:06;;;;;;;11.85;5.22;;;;;;;;;;5098784;28;20115;-69
2021/08/10 06:31:32;;;;;;;10.43;5.13;;;;;;;;;;5100734;28;20518;-69
2021/08/10 06:33:59;;;;;;;13.70;4.53;;;;;;;;;;5102173;28;20534;-70
2021/08/10 06:36:25;;;;;;;9.43;4.50;;;;;;;;;;5096839;28;20023;-70
2021/08/10 06:38:51;;;;;;;15.93;5.38;;;;;;;;;;5097545;28;20031;-69
2021/08/10 06:41:17;;;;;;;17.05;4.88;;;;;;;;;;5100252;28;20051;-68
2021/08/10 06:43:43;;;;;;;17.10;5.60;;;;;;;;;;5109675;28;20035;-69
2021/08/10 06:46:09;;;;;;;12.55;5.07;;;;;;;;;;5104655;28;20024;-69
2021/08/10 06:48:35;;;;;;;15.52;5.00;;;;;;;;;;5098662;28;20046;-69
2021/08/10 06:51:01;;;;;;;20.38;6.82;;;;;;;;;;5097620;28;20035;-68
2021/08/10 06:53:27;;;;;;;13.65;6.60;;;;;;;;;;5102984;28;20024;-68
2021/08/10 06:55:53;;;;;;;19.30;5.70;;;;;;;;;;5089906;28;20499;-68
2021/08/10 06:58:19;;;;;;;16.48;6.57;;;;;;;;;;5101845;28;20020;-69
2021/08/10 07:00:46;;;;;;;17.15;6.85;;;;;;;;;;5102150;28;20027;-69
2021/08/10 07:03:12;;;;;;;18.70;6.28;;;;;;;;;;5101269;28;20087;-68
2021/08/10 07:05:38;;;;;;;18.05;6.22;;;;;;;;;;5098549;28;20032;-67
2021/08/10 07:08:04;;;;;;;16.05;6.28;;;;;;;;;;5102478;28;20089;-68
2021/08/10 07:10:30;;;;;;;17.77;5.70;;;;;;;;;;5101455;28;20028;-68
2021/08/10 07:12:56;;;;;;;15.88;6.32;;;;;;;;;;5099474;28;20630;-69
2021/08/10 07:15:22;;;;;;;15.13;6.03;;;;;;;;;;5097611;28;20020;-69
2021/08/10 07:17:48;;;;;;;18.48;6.13;;;;;;;;;;5101387;28;20020;-69
2021/08/10 07:20:14;;;;;;;16.63;5.85;;;;;;;;;;5104621;28;20089;-68
2021/08/10 07:22:40;;;;;;;13.75;5.75;;;;;;;;;;5098197;28;20039;-67
2021/08/10 07:25:07;;;;;;;14.38;6.10;;;;;;;;;;5101383;28;20020;-69
2021/08/10 07:27:33;;;;;;;14.02;5.47;;;;;;;;;;5098700;28;20506;-69
2021/08/10 07:30:00;;;;;;;12.07;5.40;;;;;;;;;;5102290;28;20427;-69
2021/08/10 07:32:27;;;;;;;16.80;6.07;;;;;;;;;;5113680;27;20111;-69
2021/08/10 07:34:53;;;;;;;15.00;5.75;;;;;;;;;;5112746;28;20452;-69
2021/08/10 07:37:19;;;;;;;18.60;6.38;;;;;;;;;;5110804;28;20046;-70
2021/08/10 07:39:45;;;;;;;11.15;5.53;;;;;;;;;;5113427;28;20024;-69
2021/08/10 07:42:11;;;;;;;15.85;5.75;;;;;;;;;;5113177;27;20123;-69
2021/08/10 07:44:37;;;;;;;17.58;6.60;;;;;;;;;;5110963;28;20035;-69
2021/08/10 07:47:06;;;;;;;16.13;5.90;;;;;;;;;;5112536;28;20023;-68
2021/08/10 07:49:34;;;;;;;15.27;6.53;;;;;;;;;;5113471;28;20383;-68
2021/08/10 07:52:00;;;;;;;16.77;6.72;;;;;;;;;;5109231;28;21301;-68
2021/08/10 07:54:26;;;;;;;20.83;7.07;;;;;;;;;;5112334;27;20023;-68
2021/08/10 07:56:52;;;;;;;16.63;5.85;;;;;;;;;;5109694;27;20020;-68
2021/08/10 07:59:18;;;;;;;20.55;7.88;;;;;;;;;;5110914;28;20030;-68
2021/08/10 08:01:44;;;;;;;14.65;6.72;;;;;;;;;;5108109;28;20065;-69
2021/08/10 08:04:10;;;;;;;17.33;7.07;;;;;;;;;;5108485;28;20046;-69
2021/08/10 08:06:36;;;;;;;19.73;7.03;;;;;;;;;;5110181;28;20561;-69
2021/08/10 08:09:02;;;;;;;15.73;7.50;;;;;;;;;;5111594;28;20084;-68
2021/08/10 08:11:28;;;;;;;17.88;7.28;;;;;;;;;;5112575;28;20024;-69
2021/08/10 08:13:55;;;;;;;23.15;7.95;;;;;;;;;;5111305;28;20021;-69
2021/08/10 08:16:21;;;;;;;14.73;7.13;;;;;;;;;;5104503;28;20031;-69
2021/08/10 08:18:47;;;;;;;12.00;5.88;;;;;;;;;;5099734;28;20480;-70
2021/08/10 08:21:13;;;;;;;16.27;6.22;;;;;;;;;;5102782;27;20023;-70
2021/08/10 08:23:39;;;;;;;16.20;7.13;;;;;;;;;;5101961;27;20027;-70
2021/08/10 08:26:08;;;;;;;19.98;6.82;;;;;;;;;;5097663;27;20027;-70
2021/08/10 08:28:34;;;;;;;15.25;5.28;;;;;;;;;;5103639;28;20034;-70
2021/08/10 08:31:01;;;;;;;21.55;7.32;;;;;;;;;;5103213;27;20050;-70
2021/08/10 08:33:28;;;;;;;21.63;7.30;;;;;;;;;;5104647;27;20051;-69
2021/08/10 08:35:54;;;;;;;17.50;6.28;;;;;;;;;;5108372;27;20031;-70
2021/08/10 08:38:20;;;;;;;12.73;5.57;;;;;;;;;;5106343;27;20028;-69
2021/08/10 08:40:47;;;;;;;19.48;6.32;;;;;;;;;;5108041;28;20044;-70
2021/08/10 08:43:13;;;;;;;15.73;5.43;;;;;;;;;;5108947;27;20031;-69
2021/08/10 08:45:43;;;;;;;15.70;5.72;;;;;;;;;;5108406;27;20034;-70
2021/08/10 08:48:13;;;;;;;16.75;5.22;;;;;;;;;;5109797;27;20019;-68
2021/08/10 08:50:39;;;;;;;16.55;4.40;;;;;;;;;;5110994;27;20124;-68
2021/08/10 08:53:06;;;;;;;13.63;4.15;;;;;;;;;;5108273;27;20486;-68
2021/08/10 08:55:32;;;;;;;13.55;4.57;;;;;;;;;;5101746;28;20564;-68
2021/08/10 08:58:00;;;;;;;17.42;6.03;;;;;;;;;;5102455;28;20082;-68
2021/08/10 09:00:26;;;;;;;14.88;4.20;;;;;;;;;;5105193;28;20027;-68
2021/08/10 09:02:52;;;;;;;13.88;4.78;;;;;;;;;;5094043;28;20058;-68
2021/08/10 09:05:18;;;;;;;16.17;4.82;;;;;;;;;;5100495;28;20049;-69
2021/08/10 09:07:44;;;;;;;16.00;4.47;;;;;;;;;;5100221;27;20031;-68
2021/08/10 09:10:19;;;;;;;14.35;4.25;;;;;;;;;;5095278;28;20072;-69
2021/08/10 09:12:50;;;;;;;10.70;4.22;;;;;;;;;;5106209;27;20028;-68
2021/08/10 09:15:28;;;;;;;13.45;4.38;;;;;;;;;;5099488;28;20019;-68
2021/08/10 09:17:55;;;;;;;12.82;4.10;;;;;;;;;;5099719;27;20039;-68
2021/08/10 09:20:22;;;;;;;12.63;4.40;;;;;;;;;;5103556;27;20036;-68
2021/08/10 09:22:56;;;;;;;13.38;4.68;;;;;;;;;;5104362;27;20028;-69
2021/08/10 09:25:22;;;;;;;13.35;4.10;;;;;;;;;;5093926;27;20423;-68
2021/08/10 09:27:48;;;;;;;12.98;4.38;;;;;;;;;;5095509;28;20043;-69
2021/08/10 09:30:16;;;;;;;10.23;4.30;;;;;;;;;;5097301;28;20487;-68
2021/08/10 09:33:01;;;;;;;15.75;5.28;;;;;;;;;;5100793;28;20024;-68
2021/08/10 09:35:32;;;;;;;13.68;4.55;;;;;;;;;;5095669;28;20142;-68
2021/08/10 09:38:07;;;;;;;11.68;4.70;;;;;;;;;;5096320;28;20084;-67
2021/08/10 09:40:34;;;;;;;16.73;4.47;;;;;;;;;;5094091;27;20518;-68
2021/08/10 09:43:19;;;;;;;11.68;4.30;;;;;;;;;;5097113;28;20035;-68
2021/08/10 09:45:45;;;;;;;13.32;4.15;;;;;;;;;;5095058;28;20024;-68
2021/08/10 09:48:15;;;;;;;13.30;4.68;;;;;;;;;;5098863;28;20039;-68
2021/08/10 09:50:41;;;;;;;15.00;4.82;;;;;;;;;;5099330;27;20024;-70
2021/08/10 09:53:17;;;;;;;13.70;4.38;;;;;;;;;;5102216;28;20333;-68
2021/08/10 09:55:56;;;;;;;20.35;4.93;;;;;;;;;;5090952;28;20024;-69
2021/08/10 09:58:23;;;;;;;14.57;4.80;;;;;;;;;;5097783;28;20012;-68
2021/08/10 10:00:50;;;;;;;13.57;5.03;;;;;;;;;;5100017;28;20486;-67
2021/08/10 10:03:20;;;;;;;13.48;4.13;;;;;;;;;;5100179;27;20015;-68
2021/08/10 10:05:47;;;;;;;12.82;4.05;;;;;;;;;;5098045;27;20524;-68
2021/08/10 10:08:16;;;;;;;9.25;3.65;;;;;;;;;;5105569;27;20039;-68
2021/08/10 10:10:43;;;;;;;11.75;4.38;;;;;;;;;;5108802;27;20089;-68
2021/08/10 10:13:13;;;;;;;14.80;4.93;;;;;;;;;;5105798;27;20027;-68
2021/08/10 10:15:40;;;;;;;12.50;4.80;;;;;;;;;;5107743;27;20608;-69
2021/08/10 10:18:10;;;;;;;15.85;3.90;;;;;;;;;;5107604;27;20027;-67
2021/08/10 10:20:37;;;;;;;13.13;4.57;;;;;;;;;;5107482;27;20137;-67
2021/08/10 10:23:04;;;;;;;14.07;4.85;;;;;;;;;;5099924;28;20510;-69
2021/08/10 10:25:31;;;;;;;11.23;4.50;;;;;;;;;;5108383;27;20058;-69
2021/08/10 10:27:59;;;;;;;11.05;4.40;;;;;;;;;;5110876;27;20263;-70
2021/08/10 10:30:25;;;;;;;11.65;4.53;;;;;;;;;;5109114;27;20032;-69
2021/08/10 10:32:51;;;;;;;14.52;5.28;;;;;;;;;;5109352;27;20394;-69
2021/08/10 10:35:18;;;;;;;15.60;4.18;;;;;;;;;;5105214;27;20583;-68
2021/08/10 10:37:46;;;;;;;10.27;3.67;;;;;;;;;;5105775;27;20014;-69
2021/08/10 10:40:13;;;;;;;15.52;4.95;;;;;;;;;;5108078;28;20203;-68
2021/08/10 10:42:40;;;;;;;9.98;3.60;;;;;;;;;;5102592;27;20066;-68
2021/08/10 10:45:06;;;;;;;11.48;4.40;;;;;;;;;;5104610;28;20075;-69
2021/08/10 10:47:34;;;;;;;12.05;3.78;;;;;;;;;;5107210;27;20051;-67
2021/08/10 10:50:00;;;;;;;16.55;4.05;;;;;;;;;;5106645;27;20024;-69
2021/08/10 10:52:27;;;;;;;13.27;4.30;;;;;;;;;;5109129;27;20410;-67
2021/08/10 10:54:55;;;;;;;12.98;3.50;;;;;;;;;;5110919;27;20403;-67
2021/08/10 10:57:33;;;;;;;14.02;4.60;;;;;;;;;;5106432;28;20072;-69
2021/08/10 11:00:07;;;;;;;16.13;4.60;;;;;;;;;;5107512;28;20027;-69
2021/08/10 11:02:34;;;;;;;13.02;4.45;;;;;;;;;;5104417;28;20077;-69
2021/08/10 11:05:06;;;;;;;15.20;4.05;;;;;;;;;;5102535;27;20423;-68
2021/08/10 11:07:38;;;;;;;13.05;3.38;;;;;;;;;;5105740;28;20128;-68
2021/08/10 11:10:10;;;;;;;14.77;4.97;;;;;;;;;;5111460;28;20106;-68
2021/08/10 11:12:43;;;;;;;11.63;3.50;;;;;;;;;;5105142;27;20028;-69
2021/08/10 11:15:15;;;;;;;14.15;4.85;;;;;;;;;;5105631;28;20039;-68
2021/08/10 11:18:01;;;;;;;13.23;3.80;;;;;;;;;;5106590;28;20031;-68
2021/08/10 11:20:27;;;;;;;11.32;3.67;;;;;;;;;;5106838;28;20098;-69
2021/08/10 11:23:12;;;;;;;13.57;4.15;;;;;;;;;;5108265;28;20034;-68
2021/08/10 11:25:38;;;;;;;11.85;4.53;;;;;;;;;;5104796;28;20032;-69
2021/08/10 11:28:24;;;;;;;13.10;4.55;;;;;;;;;;5110234;28;20030;-68
2021/08/10 11:30:50;;;;;;;10.60;3.90;;;;;;;;;;5108812;28;20056;-68
2021/08/10 11:33:35;;;;;;;15.15;4.05;;;;;;;;;;5109771;28;20031;-69
2021/08/10 11:36:10;;;;;;;18.15;4.15;;;;;;;;;;5105790;28;20026;-68
2021/08/10 11:38:37;;;;;;;13.07;3.72;;;;;;;;;;5107553;28;20071;-68
2021/08/10 11:41:04;;;;;;;15.45;3.88;;;;;;;;;;5103732;28;20031;-69
2021/08/10 11:43:36;;;;;;;12.35;3.88;;;;;;;;;;5107857;28;20532;-67
2021/08/10 11:46:02;;;;;;;12.02;3.95;;;;;;;;;;5104191;28;20034;-68
2021/08/10 11:48:41;;;;;;;14.10;4.68;;;;;;;;;;5108046;28;20422;-70
2021/08/10 11:51:24;;;;;;;12.50;4.15;;;;;;;;;;5107421;28;20030;-71
2021/08/10 11:53:51;;;;;;;12.25;3.45;;;;;;;;;;5110148;27;20034;-70
2021/08/10 11:56:24;;;;;;;14.80;4.18;;;;;;;;;;5109368;28;20095;-71
2021/08/10 11:58:50;;;;;;;11.43;4.15;;;;;;;;;;5113160;27;20024;-70
2021/08/10 12:01:17;;;;;;;14.95;4.70;;;;;;;;;;5113514;27;20026;-69
2021/08/10 12:03:43;;;;;;;12.63;6.45;;;;;;;;;;5108896;27;20028;-68
2021/08/10 12:06:09;;;;;;;15.93;5.95;;;;;;;;;;5108981;27;20043;-68
2021/08/10 12:08:35;;;;;;;11.45;5.88;;;;;;;;;;5113126;27;20137;-67
2021/08/10 12:11:01;;;;;;;15.23;6.85;;;;;;;;;;5110033;28;20031;-68
2021/08/10 12:13:29;;;;;;;15.40;6.97;;;;;;;;;;5114003;27;20122;-68
2021/08/10 12:15:55;;;;;;;16.05;6.78;;;;;;;;;;5108457;27;20024;-68
2021/08/10 12:18:23;;;;;;;12.13;6.97;;;;;;;;;;5112313;28;20020;-67
2021/08/10 12:21:02;;;;;;;15.80;7.00;;;;;;;;;;5107766;28;20464;-67
2021/08/10 12:23:39;;;;;;;14.52;5.85;;;;;;;;;;5104523;28;20067;-68
2021/08/10 12:26:18;;;;;;;18.13;5.80;;;;;;;;;;5107503;27;20050;-69
2021/08/10 12:28:50;;;;;;;17.25;5.43;;;;;;;;;;5109803;27;20511;-68
2021/08/10 12:31:16;;;;;;;14.25;5.40;;;;;;;;;;5111473;27;20069;-67
2021/08/10 12:33:47;;;;;;;9.75;4.25;;;;;;;;;;5111476;27;20508;-68
2021/08/10 12:36:13;;;;;;;13.60;4.53;;;;;;;;;;5107581;27;20019;-68
2021/08/10 12:38:39;;;;;;;10.77;4.20;;;;;;;;;;5110469;27;20015;-67
2021/08/10 12:41:06;;;;;;;11.35;3.50;;;;;;;;;;5111726;27;20452;-68
2021/08/10 12:43:32;;;;;;;9.82;4.53;;;;;;;;;;5110966;27;20031;-68
2021/08/10 12:45:58;;;;;;;12.55;4.28;;;;;;;;;;5108912;28;20098;-68
2021/08/10 12:48:28;;;;;;;13.38;3.97;;;;;;;;;;5110740;27;20414;-68
2021/08/10 12:51:02;;;;;;;13.18;5.32;;;;;;;;;;5109729;28;20038;-68
2021/08/10 12:53:29;;;;;;;10.48;3.65;;;;;;;;;;5110177;28;20073;-68
2021/08/10 12:55:55;;;;;;;9.68;4.65;;;;;;;;;;5107825;28;20031;-69
2021/08/10 12:58:21;;;;;;;13.93;4.43;;;;;;;;;;5113313;27;20475;-68
2021/08/10 13:01:00;;;;;;;13.73;3.88;;;;;;;;;;5110656;27;20027;-68
2021/08/10 13:03:27;;;;;;;10.75;3.67;;;;;;;;;;5111576;27;20023;-69
2021/08/10 13:05:54;;;;;;;10.27;4.10;;;;;;;;;;5103641;27;20080;-68
2021/08/10 13:08:21;;;;;;;15.40;3.88;;;;;;;;;;5110727;27;20038;-68
2021/08/10 13:10:48;;;;;;;10.13;3.88;;;;;;;;;;5106772;27;20032;-68
2021/08/10 13:13:25;;;;;;;9.43;3.83;;;;;;;;;;5107329;27;20083;-68
2021/08/10 13:15:52;;;;;;;10.38;4.18;;;;;;;;;;5101969;28;20554;-69
2021/08/10 13:18:18;;;;;;;9.15;3.50;;;;;;;;;;5106136;27;20097;-70
2021/08/10 13:21:04;;;;;;;7.45;3.13;;;;;;;;;;5099454;28;20035;-68
2021/08/10 13:23:31;;;;;;;10.85;3.50;;;;;;;;;;5097900;27;20415;-69
2021/08/10 13:26:02;;;;;;;7.22;3.47;;;;;;;;;;5107455;27;20112;-68
2021/08/10 13:28:30;;;;;;;11.50;3.78;;;;;;;;;;5108517;27;20116;-68
2021/08/10 13:31:09;;;;;;;9.77;3.42;;;;;;;;;;5097057;27;20035;-68
2021/08/10 13:33:48;;;;;;;12.70;3.83;;;;;;;;;;5108927;28;20038;-68
2021/08/10 13:36:14;;;;;;;11.40;4.35;;;;;;;;;;5106756;28;20011;-68
2021/08/10 13:38:40;;;;;;;10.93;3.55;;;;;;;;;;5109021;28;20486;-67
2021/08/10 13:41:06;;;;;;;12.13;3.33;;;;;;;;;;5108092;28;20035;-69
2021/08/10 13:43:32;;;;;;;8.65;3.20;;;;;;;;;;5110495;28;20203;-68
2021/08/10 13:45:58;;;;;;;10.25;3.45;;;;;;;;;;5107996;28;20050;-68
2021/08/10 13:48:24;;;;;;;10.32;3.33;;;;;;;;;;5108232;28;20419;-67
2021/08/10 13:50:50;;;;;;;8.55;3.58;;;;;;;;;;5097094;27;20511;-68
2021/08/10 13:53:18;;;;;;;15.25;4.03;;;;;;;;;;5095318;28;20506;-68
2021/08/10 13:55:44;;;;;;;9.95;3.35;;;;;;;;;;5093910;27;20048;-69
2021/08/10 13:58:10;;;;;;;9.63;3.63;;;;;;;;;;5097260;28;20036;-69
2021/08/10 14:00:37;;;;;;;12.70;3.55;;;;;;;;;;5103006;27;20056;-68
2021/08/10 14:03:03;;;;;;;13.68;3.70;;;;;;;;;;5094200;27;20028;-68
2021/08/10 14:05:29;;;;;;;9.10;3.03;;;;;;;;;;5103610;27;20063;-68
2021/08/10 14:07:55;;;;;;;9.50;3.63;;;;;;;;;;5097061;28;20040;-68
2021/08/10 14:10:21;;;;;;;16.60;3.42;;;;;;;;;;5095883;27;20031;-68
2021/08/10 14:12:48;;;;;;;8.90;2.92;;;;;;;;;;5100183;27;20078;-67
2021/08/10 14:15:15;;;;;;;12.27;3.60;;;;;;;;;;5096825;27;20024;-69
2021/08/10 14:17:41;;;;;;;9.38;3.08;;;;;;;;;;5101469;28;20019;-68
2021/08/10 14:20:08;;;;;;;11.48;3.63;;;;;;;;;;5095900;28;20089;-69
2021/08/10 14:22:35;;;;;;;7.45;3.25;;;;;;;;;;5103606;27;20026;-70
2021/08/10 14:25:01;;;;;;;10.38;3.10;;;;;;;;;;5100368;27;20044;-69
2021/08/10 14:27:28;;;;;;;8.60;4.40;;;;;;;;;;5106425;28;20020;-69
2021/08/10 14:29:54;;;;;;;10.45;3.33;;;;;;;;;;5097566;28;20035;-69
2021/08/10 14:32:22;;;;;;;8.15;2.58;;;;;;;;;;5099202;27;20023;-69
2021/08/10 14:34:48;;;;;;;12.20;3.22;;;;;;;;;;5092607;28;20054;-69